sensor_id;sensor_type;location;lat;lon;timestamp;P1;durP1;ratioP1;P2;durP2;ratioP2
635;SDS011;302;50.206;8.196;2022-08-25T00:01:59;3.40;;;3.10;;
635;SDS011;302;50.206;8.196;2022-08-25T00:04:25;3.25;;;3.05;;
635;SDS011;302;50.206;8.196;2022-08-25T00:06:50;3.27;;;2.97;;
635;SDS011;302;50.206;8.196;2022-08-25T00:09:18;3.65;;;3.35;;
635;SDS011;302;50.206;8.196;2022-08-25T00:11:44;3.38;;;3.17;;
635;SDS011;302;50.206;8.196;2022-08-25T00:14:11;4.20;;;3.80;;
635;SDS011;302;50.206;8.196;2022-08-25T00:16:36;3.42;;;3.22;;
635;SDS011;302;50.206;8.196;2022-08-25T00:19:05;3.43;;;3.23;;
635;SDS011;302;50.206;8.196;2022-08-25T00:21:30;3.35;;;3.13;;
635;SDS011;302;50.206;8.196;2022-08-25T00:23:56;4.00;;;3.80;;
635;SDS011;302;50.206;8.196;2022-08-25T00:26:21;3.20;;;2.90;;
635;SDS011;302;50.206;8.196;2022-08-25T00:28:47;3.97;;;3.60;;
635;SDS011;302;50.206;8.196;2022-08-25T00:31:13;3.67;;;3.37;;
635;SDS011;302;50.206;8.196;2022-08-25T00:33:38;3.60;;;3.40;;
635;SDS011;302;50.206;8.196;2022-08-25T00:36:03;3.30;;;3.00;;
635;SDS011;302;50.206;8.196;2022-08-25T00:38:29;3.80;;;3.50;;
635;SDS011;302;50.206;8.196;2022-08-25T00:40:55;3.47;;;3.28;;
635;SDS011;302;50.206;8.196;2022-08-25T00:43:52;3.72;;;3.42;;
635;SDS011;302;50.206;8.196;2022-08-25T00:46:19;3.53;;;3.22;;
635;SDS011;302;50.206;8.196;2022-08-25T00:48:46;3.60;;;3.40;;
635;SDS011;302;50.206;8.196;2022-08-25T00:51:13;3.92;;;3.63;;
635;SDS011;302;50.206;8.196;2022-08-25T00:53:40;4.43;;;3.40;;
635;SDS011;302;50.206;8.196;2022-08-25T00:56:06;3.70;;;3.50;;
635;SDS011;302;50.206;8.196;2022-08-25T00:58:31;3.50;;;3.30;;
635;SDS011;302;50.206;8.196;2022-08-25T01:00:58;3.60;;;3.30;;
635;SDS011;302;50.206;8.196;2022-08-25T01:03:24;3.20;;;2.90;;
635;SDS011;302;50.206;8.196;2022-08-25T01:05:50;3.85;;;3.55;;
635;SDS011;302;50.206;8.196;2022-08-25T01:08:16;4.07;;;3.75;;
635;SDS011;302;50.206;8.196;2022-08-25T01:10:46;4.45;;;4.05;;
635;SDS011;302;50.206;8.196;2022-08-25T01:13:13;4.70;;;4.03;;
635;SDS011;302;50.206;8.196;2022-08-25T01:15:39;3.97;;;3.67;;
635;SDS011;302;50.206;8.196;2022-08-25T01:18:05;5.47;;;4.20;;
635;SDS011;302;50.206;8.196;2022-08-25T01:20:31;4.80;;;4.40;;
635;SDS011;302;50.206;8.196;2022-08-25T01:22:57;5.03;;;4.63;;
635;SDS011;302;50.206;8.196;2022-08-25T01:25:38;4.45;;;4.15;;
635;SDS011;302;50.206;8.196;2022-08-25T01:28:06;4.40;;;4.10;;
635;SDS011;302;50.206;8.196;2022-08-25T01:30:32;5.03;;;4.57;;
635;SDS011;302;50.206;8.196;2022-08-25T01:32:57;4.20;;;3.87;;
635;SDS011;302;50.206;8.196;2022-08-25T01:35:22;4.57;;;4.17;;
635;SDS011;302;50.206;8.196;2022-08-25T01:37:47;4.83;;;4.43;;
635;SDS011;302;50.206;8.196;2022-08-25T01:40:13;5.50;;;5.10;;
635;SDS011;302;50.206;8.196;2022-08-25T01:45:07;5.25;;;4.72;;
635;SDS011;302;50.206;8.196;2022-08-25T01:47:32;4.73;;;4.33;;
635;SDS011;302;50.206;8.196;2022-08-25T01:49:57;5.07;;;4.67;;
635;SDS011;302;50.206;8.196;2022-08-25T01:55:06;6.80;;;6.20;;
635;SDS011;302;50.206;8.196;2022-08-25T01:57:32;6.00;;;5.50;;
635;SDS011;302;50.206;8.196;2022-08-25T01:59:57;6.90;;;5.40;;
635;SDS011;302;50.206;8.196;2022-08-25T02:02:22;5.33;;;4.90;;
635;SDS011;302;50.206;8.196;2022-08-25T02:04:48;5.53;;;5.13;;
635;SDS011;302;50.206;8.196;2022-08-25T02:07:13;5.37;;;4.87;;
635;SDS011;302;50.206;8.196;2022-08-25T02:09:38;6.20;;;5.43;;
635;SDS011;302;50.206;8.196;2022-08-25T02:12:03;6.07;;;5.30;;
635;SDS011;302;50.206;8.196;2022-08-25T02:14:29;5.40;;;5.00;;
635;SDS011;302;50.206;8.196;2022-08-25T02:16:54;5.40;;;4.90;;
635;SDS011;302;50.206;8.196;2022-08-25T02:19:20;5.67;;;5.20;;
635;SDS011;302;50.206;8.196;2022-08-25T02:21:46;6.57;;;5.97;;
635;SDS011;302;50.206;8.196;2022-08-25T02:24:11;5.60;;;5.10;;
635;SDS011;302;50.206;8.196;2022-08-25T02:26:37;6.37;;;5.77;;
635;SDS011;302;50.206;8.196;2022-08-25T02:29:02;6.33;;;5.37;;
635;SDS011;302;50.206;8.196;2022-08-25T02:31:27;5.87;;;5.37;;
635;SDS011;302;50.206;8.196;2022-08-25T02:33:53;5.90;;;5.40;;
635;SDS011;302;50.206;8.196;2022-08-25T02:36:19;5.68;;;5.25;;
635;SDS011;302;50.206;8.196;2022-08-25T02:38:44;6.00;;;5.50;;
635;SDS011;302;50.206;8.196;2022-08-25T02:41:11;6.10;;;5.60;;
635;SDS011;302;50.206;8.196;2022-08-25T02:43:37;5.57;;;5.18;;
635;SDS011;302;50.206;8.196;2022-08-25T02:46:03;6.30;;;5.70;;
635;SDS011;302;50.206;8.196;2022-08-25T02:48:28;6.10;;;5.57;;
635;SDS011;302;50.206;8.196;2022-08-25T02:50:53;6.70;;;6.10;;
635;SDS011;302;50.206;8.196;2022-08-25T02:53:19;6.87;;;6.17;;
635;SDS011;302;50.206;8.196;2022-08-25T02:55:44;6.45;;;5.78;;
635;SDS011;302;50.206;8.196;2022-08-25T02:58:10;6.35;;;5.75;;
635;SDS011;302;50.206;8.196;2022-08-25T03:00:36;6.70;;;6.10;;
635;SDS011;302;50.206;8.196;2022-08-25T03:03:01;6.90;;;6.20;;
635;SDS011;302;50.206;8.196;2022-08-25T03:05:26;7.43;;;6.80;;
635;SDS011;302;50.206;8.196;2022-08-25T03:07:51;7.20;;;6.60;;
635;SDS011;302;50.206;8.196;2022-08-25T03:10:17;6.63;;;6.03;;
635;SDS011;302;50.206;8.196;2022-08-25T03:12:43;6.45;;;5.75;;
635;SDS011;302;50.206;8.196;2022-08-25T03:15:10;7.27;;;6.67;;
635;SDS011;302;50.206;8.196;2022-08-25T03:17:35;6.82;;;6.22;;
635;SDS011;302;50.206;8.196;2022-08-25T03:20:00;7.30;;;6.70;;
635;SDS011;302;50.206;8.196;2022-08-25T03:22:25;7.17;;;6.60;;
635;SDS011;302;50.206;8.196;2022-08-25T03:24:51;7.33;;;6.63;;
635;SDS011;302;50.206;8.196;2022-08-25T03:27:16;6.90;;;6.33;;
635;SDS011;302;50.206;8.196;2022-08-25T03:29:41;6.40;;;5.90;;
635;SDS011;302;50.206;8.196;2022-08-25T03:32:07;6.50;;;5.90;;
635;SDS011;302;50.206;8.196;2022-08-25T03:34:32;6.93;;;6.33;;
635;SDS011;302;50.206;8.196;2022-08-25T03:36:57;6.33;;;5.73;;
635;SDS011;302;50.206;8.196;2022-08-25T03:39:23;7.50;;;6.90;;
635;SDS011;302;50.206;8.196;2022-08-25T03:41:48;7.60;;;7.00;;
635;SDS011;302;50.206;8.196;2022-08-25T03:44:14;7.00;;;6.40;;
635;SDS011;302;50.206;8.196;2022-08-25T03:46:41;7.50;;;6.80;;
635;SDS011;302;50.206;8.196;2022-08-25T03:49:08;6.88;;;6.28;;
635;SDS011;302;50.206;8.196;2022-08-25T03:51:34;7.22;;;6.50;;
635;SDS011;302;50.206;8.196;2022-08-25T03:54:00;6.88;;;6.35;;
635;SDS011;302;50.206;8.196;2022-08-25T03:56:25;7.50;;;6.80;;
635;SDS011;302;50.206;8.196;2022-08-25T03:58:51;7.70;;;6.97;;
635;SDS011;302;50.206;8.196;2022-08-25T04:01:17;7.63;;;7.03;;
635;SDS011;302;50.206;8.196;2022-08-25T04:03:42;7.67;;;6.97;;
635;SDS011;302;50.206;8.196;2022-08-25T04:06:07;7.60;;;7.00;;
635;SDS011;302;50.206;8.196;2022-08-25T04:08:32;7.93;;;7.13;;
635;SDS011;302;50.206;8.196;2022-08-25T04:10:57;8.40;;;7.20;;
635;SDS011;302;50.206;8.196;2022-08-25T04:13:23;7.90;;;7.30;;
635;SDS011;302;50.206;8.196;2022-08-25T04:15:49;9.13;;;7.90;;
635;SDS011;302;50.206;8.196;2022-08-25T04:18:14;7.27;;;6.67;;
635;SDS011;302;50.206;8.196;2022-08-25T04:20:40;6.83;;;6.33;;
635;SDS011;302;50.206;8.196;2022-08-25T04:23:06;7.20;;;6.60;;
635;SDS011;302;50.206;8.196;2022-08-25T04:25:31;8.20;;;7.40;;
635;SDS011;302;50.206;8.196;2022-08-25T04:27:56;8.23;;;7.37;;
635;SDS011;302;50.206;8.196;2022-08-25T04:30:22;6.97;;;6.27;;
635;SDS011;302;50.206;8.196;2022-08-25T04:32:47;7.73;;;7.07;;
635;SDS011;302;50.206;8.196;2022-08-25T04:35:13;8.10;;;7.40;;
635;SDS011;302;50.206;8.196;2022-08-25T04:37:38;7.90;;;7.10;;
635;SDS011;302;50.206;8.196;2022-08-25T04:40:03;7.50;;;6.80;;
635;SDS011;302;50.206;8.196;2022-08-25T04:42:29;7.23;;;6.63;;
635;SDS011;302;50.206;8.196;2022-08-25T04:44:54;7.63;;;7.00;;
635;SDS011;302;50.206;8.196;2022-08-25T04:47:19;7.83;;;7.23;;
635;SDS011;302;50.206;8.196;2022-08-25T04:49:45;8.27;;;7.50;;
635;SDS011;302;50.206;8.196;2022-08-25T04:52:10;8.43;;;7.68;;
635;SDS011;302;50.206;8.196;2022-08-25T04:54:35;7.83;;;7.13;;
635;SDS011;302;50.206;8.196;2022-08-25T04:57:00;7.53;;;6.93;;
635;SDS011;302;50.206;8.196;2022-08-25T04:59:26;8.37;;;7.33;;
635;SDS011;302;50.206;8.196;2022-08-25T05:01:51;8.20;;;7.47;;
635;SDS011;302;50.206;8.196;2022-08-25T05:04:19;7.83;;;7.13;;
635;SDS011;302;50.206;8.196;2022-08-25T05:06:44;7.72;;;7.03;;
635;SDS011;302;50.206;8.196;2022-08-25T05:09:10;8.50;;;7.70;;
635;SDS011;302;50.206;8.196;2022-08-25T05:11:35;9.43;;;8.57;;
635;SDS011;302;50.206;8.196;2022-08-25T05:14:01;7.53;;;6.87;;
635;SDS011;302;50.206;8.196;2022-08-25T05:16:27;8.40;;;7.60;;
635;SDS011;302;50.206;8.196;2022-08-25T05:18:52;8.90;;;8.10;;
635;SDS011;302;50.206;8.196;2022-08-25T05:21:19;8.57;;;7.77;;
635;SDS011;302;50.206;8.196;2022-08-25T05:23:45;8.63;;;7.63;;
635;SDS011;302;50.206;8.196;2022-08-25T05:26:12;8.60;;;7.80;;
635;SDS011;302;50.206;8.196;2022-08-25T05:28:38;8.93;;;8.20;;
635;SDS011;302;50.206;8.196;2022-08-25T05:31:08;7.93;;;7.22;;
635;SDS011;302;50.206;8.196;2022-08-25T05:33:33;7.85;;;7.20;;
635;SDS011;302;50.206;8.196;2022-08-25T05:35:59;8.80;;;7.90;;
635;SDS011;302;50.206;8.196;2022-08-25T05:38:24;7.90;;;7.10;;
635;SDS011;302;50.206;8.196;2022-08-25T05:41:00;8.30;;;7.53;;
635;SDS011;302;50.206;8.196;2022-08-25T05:43:26;8.68;;;7.78;;
635;SDS011;302;50.206;8.196;2022-08-25T05:45:54;8.70;;;7.90;;
635;SDS011;302;50.206;8.196;2022-08-25T05:48:20;8.82;;;8.10;;
635;SDS011;302;50.206;8.196;2022-08-25T05:50:52;8.67;;;7.87;;
635;SDS011;302;50.206;8.196;2022-08-25T05:53:18;9.73;;;8.82;;
635;SDS011;302;50.206;8.196;2022-08-25T05:55:44;9.70;;;8.80;;
635;SDS011;302;50.206;8.196;2022-08-25T05:58:09;9.40;;;8.50;;
635;SDS011;302;50.206;8.196;2022-08-25T06:00:36;8.87;;;8.07;;
635;SDS011;302;50.206;8.196;2022-08-25T06:03:01;9.50;;;8.73;;
635;SDS011;302;50.206;8.196;2022-08-25T06:05:26;9.63;;;8.63;;
635;SDS011;302;50.206;8.196;2022-08-25T06:07:51;8.83;;;8.03;;
635;SDS011;302;50.206;8.196;2022-08-25T06:10:17;8.47;;;7.83;;
635;SDS011;302;50.206;8.196;2022-08-25T06:12:43;9.10;;;8.30;;
635;SDS011;302;50.206;8.196;2022-08-25T06:15:09;8.20;;;7.53;;
635;SDS011;302;50.206;8.196;2022-08-25T06:17:35;9.57;;;8.68;;
635;SDS011;302;50.206;8.196;2022-08-25T06:20:05;8.93;;;8.05;;
635;SDS011;302;50.206;8.196;2022-08-25T06:22:30;8.88;;;8.07;;
635;SDS011;302;50.206;8.196;2022-08-25T06:24:56;8.50;;;7.70;;
635;SDS011;302;50.206;8.196;2022-08-25T06:27:21;7.90;;;7.30;;
635;SDS011;302;50.206;8.196;2022-08-25T06:29:46;9.13;;;8.27;;
635;SDS011;302;50.206;8.196;2022-08-25T06:32:11;8.57;;;7.87;;
635;SDS011;302;50.206;8.196;2022-08-25T06:34:37;8.13;;;7.32;;
635;SDS011;302;50.206;8.196;2022-08-25T06:37:02;8.60;;;7.97;;
635;SDS011;302;50.206;8.196;2022-08-25T06:39:27;8.83;;;8.10;;
635;SDS011;302;50.206;8.196;2022-08-25T06:41:52;8.60;;;7.80;;
635;SDS011;302;50.206;8.196;2022-08-25T06:44:18;8.20;;;7.50;;
635;SDS011;302;50.206;8.196;2022-08-25T06:46:43;8.93;;;8.13;;
635;SDS011;302;50.206;8.196;2022-08-25T06:49:08;10.17;;;7.07;;
635;SDS011;302;50.206;8.196;2022-08-25T06:51:34;7.70;;;7.10;;
635;SDS011;302;50.206;8.196;2022-08-25T06:54:02;7.75;;;7.15;;
635;SDS011;302;50.206;8.196;2022-08-25T06:56:27;8.57;;;7.87;;
635;SDS011;302;50.206;8.196;2022-08-25T06:58:53;8.57;;;7.80;;
635;SDS011;302;50.206;8.196;2022-08-25T07:01:19;8.70;;;7.03;;
635;SDS011;302;50.206;8.196;2022-08-25T07:03:47;7.80;;;7.10;;
635;SDS011;302;50.206;8.196;2022-08-25T07:06:12;8.00;;;7.20;;
635;SDS011;302;50.206;8.196;2022-08-25T07:08:38;8.70;;;8.00;;
635;SDS011;302;50.206;8.196;2022-08-25T07:11:04;8.30;;;7.50;;
635;SDS011;302;50.206;8.196;2022-08-25T07:13:30;8.32;;;7.63;;
635;SDS011;302;50.206;8.196;2022-08-25T07:15:56;8.37;;;7.60;;
635;SDS011;302;50.206;8.196;2022-08-25T07:18:21;7.77;;;7.07;;
635;SDS011;302;50.206;8.196;2022-08-25T07:20:46;8.00;;;7.30;;
635;SDS011;302;50.206;8.196;2022-08-25T07:23:12;9.37;;;8.47;;
635;SDS011;302;50.206;8.196;2022-08-25T07:25:37;7.30;;;6.70;;
635;SDS011;302;50.206;8.196;2022-08-25T07:28:02;8.10;;;7.37;;
635;SDS011;302;50.206;8.196;2022-08-25T07:30:28;7.53;;;6.83;;
635;SDS011;302;50.206;8.196;2022-08-25T07:32:53;8.40;;;7.70;;
635;SDS011;302;50.206;8.196;2022-08-25T07:35:18;8.10;;;7.40;;
635;SDS011;302;50.206;8.196;2022-08-25T07:37:45;8.45;;;7.75;;
635;SDS011;302;50.206;8.196;2022-08-25T07:40:13;8.95;;;8.15;;
635;SDS011;302;50.206;8.196;2022-08-25T07:42:39;9.45;;;8.18;;
635;SDS011;302;50.206;8.196;2022-08-25T07:45:04;8.13;;;7.43;;
635;SDS011;302;50.206;8.196;2022-08-25T07:47:30;7.77;;;7.07;;
635;SDS011;302;50.206;8.196;2022-08-25T07:49:55;8.60;;;7.80;;
635;SDS011;302;50.206;8.196;2022-08-25T07:52:21;9.10;;;8.30;;
635;SDS011;302;50.206;8.196;2022-08-25T07:54:46;8.77;;;7.90;;
635;SDS011;302;50.206;8.196;2022-08-25T07:57:11;8.27;;;7.53;;
635;SDS011;302;50.206;8.196;2022-08-25T07:59:39;8.03;;;7.33;;
635;SDS011;302;50.206;8.196;2022-08-25T08:02:09;8.00;;;7.30;;
635;SDS011;302;50.206;8.196;2022-08-25T08:04:35;7.67;;;7.07;;
635;SDS011;302;50.206;8.196;2022-08-25T08:07:00;8.33;;;7.63;;
635;SDS011;302;50.206;8.196;2022-08-25T08:09:25;8.25;;;7.45;;
635;SDS011;302;50.206;8.196;2022-08-25T08:11:50;9.15;;;8.40;;
635;SDS011;302;50.206;8.196;2022-08-25T08:14:15;8.33;;;7.63;;
635;SDS011;302;50.206;8.196;2022-08-25T08:16:41;8.40;;;7.77;;
635;SDS011;302;50.206;8.196;2022-08-25T08:19:06;7.67;;;7.07;;
635;SDS011;302;50.206;8.196;2022-08-25T08:21:32;9.10;;;8.30;;
635;SDS011;302;50.206;8.196;2022-08-25T08:23:57;8.80;;;7.33;;
635;SDS011;302;50.206;8.196;2022-08-25T08:26:23;8.30;;;7.57;;
635;SDS011;302;50.206;8.196;2022-08-25T08:28:48;7.97;;;7.27;;
635;SDS011;302;50.206;8.196;2022-08-25T08:31:15;8.90;;;8.10;;
635;SDS011;302;50.206;8.196;2022-08-25T08:33:43;7.33;;;6.73;;
635;SDS011;302;50.206;8.196;2022-08-25T08:36:09;7.53;;;6.83;;
635;SDS011;302;50.206;8.196;2022-08-25T08:38:35;7.97;;;7.27;;
635;SDS011;302;50.206;8.196;2022-08-25T08:44:03;7.30;;;6.70;;
635;SDS011;302;50.206;8.196;2022-08-25T08:46:35;8.43;;;7.80;;
635;SDS011;302;50.206;8.196;2022-08-25T08:49:05;7.13;;;6.53;;
635;SDS011;302;50.206;8.196;2022-08-25T08:51:32;7.63;;;6.97;;
635;SDS011;302;50.206;8.196;2022-08-25T08:54:03;6.93;;;6.33;;
635;SDS011;302;50.206;8.196;2022-08-25T08:56:31;6.53;;;5.93;;
635;SDS011;302;50.206;8.196;2022-08-25T08:59:02;6.83;;;6.23;;
635;SDS011;302;50.206;8.196;2022-08-25T09:02:15;7.03;;;6.43;;
635;SDS011;302;50.206;8.196;2022-08-25T09:04:58;6.77;;;6.20;;
635;SDS011;302;50.206;8.196;2022-08-25T09:07:03;6.30;;;5.80;;
635;SDS011;302;50.206;8.196;2022-08-25T09:09:33;6.03;;;5.53;;
635;SDS011;302;50.206;8.196;2022-08-25T09:14:36;6.40;;;5.90;;
635;SDS011;302;50.206;8.196;2022-08-25T09:22:09;6.90;;;6.30;;
635;SDS011;302;50.206;8.196;2022-08-25T09:24:42;8.07;;;5.83;;
635;SDS011;302;50.206;8.196;2022-08-25T09:27:14;7.13;;;6.53;;
635;SDS011;302;50.206;8.196;2022-08-25T09:29:48;6.30;;;5.80;;
635;SDS011;302;50.206;8.196;2022-08-25T09:32:14;6.70;;;6.10;;
635;SDS011;302;50.206;8.196;2022-08-25T09:34:39;7.10;;;6.40;;
635;SDS011;302;50.206;8.196;2022-08-25T09:37:05;7.73;;;7.13;;
635;SDS011;302;50.206;8.196;2022-08-25T09:39:30;6.83;;;6.23;;
635;SDS011;302;50.206;8.196;2022-08-25T09:41:56;7.30;;;6.70;;
635;SDS011;302;50.206;8.196;2022-08-25T09:44:23;7.50;;;6.80;;
635;SDS011;302;50.206;8.196;2022-08-25T09:46:56;7.33;;;6.70;;
635;SDS011;302;50.206;8.196;2022-08-25T09:49:30;6.10;;;5.53;;
635;SDS011;302;50.206;8.196;2022-08-25T09:51:55;7.30;;;6.70;;
635;SDS011;302;50.206;8.196;2022-08-25T09:54:23;6.60;;;6.00;;
635;SDS011;302;50.206;8.196;2022-08-25T09:56:52;7.50;;;6.90;;
635;SDS011;302;50.206;8.196;2022-08-25T09:59:28;8.23;;;7.50;;
635;SDS011;302;50.206;8.196;2022-08-25T10:01:54;6.97;;;6.37;;
635;SDS011;302;50.206;8.196;2022-08-25T10:06:51;7.13;;;6.43;;
635;SDS011;302;50.206;8.196;2022-08-25T10:09:26;6.17;;;5.67;;
635;SDS011;302;50.206;8.196;2022-08-25T10:11:53;5.70;;;5.20;;
635;SDS011;302;50.206;8.196;2022-08-25T10:16:44;7.03;;;6.53;;
635;SDS011;302;50.206;8.196;2022-08-25T10:21:39;6.10;;;5.60;;
635;SDS011;302;50.206;8.196;2022-08-25T10:24:06;5.73;;;5.33;;
635;SDS011;302;50.206;8.196;2022-08-25T10:29:15;6.80;;;6.20;;
635;SDS011;302;50.206;8.196;2022-08-25T10:40:14;5.77;;;5.37;;
635;SDS011;302;50.206;8.196;2022-08-25T10:45:27;6.53;;;5.97;;
635;SDS011;302;50.206;8.196;2022-08-25T10:48:16;5.87;;;5.37;;
635;SDS011;302;50.206;8.196;2022-08-25T10:50:50;6.87;;;6.20;;
635;SDS011;302;50.206;8.196;2022-08-25T10:53:39;5.67;;;5.17;;
635;SDS011;302;50.206;8.196;2022-08-25T11:01:18;6.57;;;5.50;;
635;SDS011;302;50.206;8.196;2022-08-25T11:03:55;6.73;;;6.13;;
635;SDS011;302;50.206;8.196;2022-08-25T11:06:24;5.90;;;5.40;;
635;SDS011;302;50.206;8.196;2022-08-25T11:08:58;6.40;;;5.90;;
635;SDS011;302;50.206;8.196;2022-08-25T11:11:30;7.37;;;6.70;;
635;SDS011;302;50.206;8.196;2022-08-25T11:14:00;5.83;;;5.33;;
635;SDS011;302;50.206;8.196;2022-08-25T11:16:41;7.40;;;6.73;;
635;SDS011;302;50.206;8.196;2022-08-25T11:19:18;7.17;;;6.57;;
635;SDS011;302;50.206;8.196;2022-08-25T11:21:54;9.87;;;6.80;;
635;SDS011;302;50.206;8.196;2022-08-25T11:24:26;6.80;;;6.20;;
635;SDS011;302;50.206;8.196;2022-08-25T11:26:54;7.40;;;6.30;;
635;SDS011;302;50.206;8.196;2022-08-25T11:29:20;7.23;;;6.53;;
635;SDS011;302;50.206;8.196;2022-08-25T11:31:48;6.90;;;6.27;;
635;SDS011;302;50.206;8.196;2022-08-25T11:34:14;7.00;;;6.40;;
635;SDS011;302;50.206;8.196;2022-08-25T11:36:43;6.70;;;6.13;;
635;SDS011;302;50.206;8.196;2022-08-25T11:39:14;6.73;;;6.23;;
635;SDS011;302;50.206;8.196;2022-08-25T11:49:28;6.70;;;6.17;;
635;SDS011;302;50.206;8.196;2022-08-25T11:51:58;6.50;;;5.93;;
635;SDS011;302;50.206;8.196;2022-08-25T11:57:02;6.40;;;5.80;;
635;SDS011;302;50.206;8.196;2022-08-25T12:02:29;6.47;;;5.97;;
635;SDS011;302;50.206;8.196;2022-08-25T12:04:55;5.83;;;5.37;;
635;SDS011;302;50.206;8.196;2022-08-25T12:07:24;6.30;;;5.80;;
635;SDS011;302;50.206;8.196;2022-08-25T12:17:42;6.93;;;6.43;;
635;SDS011;302;50.206;8.196;2022-08-25T12:20:07;6.73;;;6.03;;
635;SDS011;302;50.206;8.196;2022-08-25T12:25:07;6.33;;;5.83;;
635;SDS011;302;50.206;8.196;2022-08-25T12:27:39;6.17;;;5.67;;
635;SDS011;302;50.206;8.196;2022-08-25T12:35:26;7.00;;;6.30;;
635;SDS011;302;50.206;8.196;2022-08-25T12:40:24;7.20;;;6.60;;
635;SDS011;302;50.206;8.196;2022-08-25T12:42:51;7.17;;;6.57;;
635;SDS011;302;50.206;8.196;2022-08-25T12:45:35;9.70;;;6.50;;
635;SDS011;302;50.206;8.196;2022-08-25T12:50:45;7.93;;;7.33;;
635;SDS011;302;50.206;8.196;2022-08-25T12:56:05;6.57;;;6.17;;
635;SDS011;302;50.206;8.196;2022-08-25T12:58:36;7.83;;;7.13;;
635;SDS011;302;50.206;8.196;2022-08-25T13:09:09;6.35;;;5.85;;
635;SDS011;302;50.206;8.196;2022-08-25T13:11:43;7.60;;;7.00;;
635;SDS011;302;50.206;8.196;2022-08-25T13:14:33;6.77;;;6.27;;
635;SDS011;302;50.206;8.196;2022-08-25T13:16:57;7.20;;;6.60;;
635;SDS011;302;50.206;8.196;2022-08-25T13:19:23;7.33;;;6.57;;
635;SDS011;302;50.206;8.196;2022-08-25T13:21:49;7.30;;;6.70;;
635;SDS011;302;50.206;8.196;2022-08-25T13:24:39;7.67;;;6.87;;
635;SDS011;302;50.206;8.196;2022-08-25T13:27:01;6.53;;;6.03;;
635;SDS011;302;50.206;8.196;2022-08-25T13:29:29;6.53;;;6.03;;
635;SDS011;302;50.206;8.196;2022-08-25T13:31:56;6.43;;;5.83;;
635;SDS011;302;50.206;8.196;2022-08-25T13:34:26;7.70;;;7.10;;
635;SDS011;302;50.206;8.196;2022-08-25T13:36:52;7.20;;;6.60;;
635;SDS011;302;50.206;8.196;2022-08-25T13:39:36;6.17;;;5.67;;
635;SDS011;302;50.206;8.196;2022-08-25T13:42:03;6.83;;;6.33;;
635;SDS011;302;50.206;8.196;2022-08-25T13:44:30;7.13;;;6.53;;
635;SDS011;302;50.206;8.196;2022-08-25T13:49:31;7.50;;;6.90;;
635;SDS011;302;50.206;8.196;2022-08-25T13:51:56;6.57;;;6.17;;
635;SDS011;302;50.206;8.196;2022-08-25T13:54:55;6.90;;;6.40;;
635;SDS011;302;50.206;8.196;2022-08-25T13:57:16;6.60;;;6.10;;
635;SDS011;302;50.206;8.196;2022-08-25T13:59:42;7.13;;;6.63;;
635;SDS011;302;50.206;8.196;2022-08-25T14:02:08;6.30;;;5.80;;
635;SDS011;302;50.206;8.196;2022-08-25T14:07:07;6.30;;;5.70;;
635;SDS011;302;50.206;8.196;2022-08-25T14:09:39;8.73;;;6.60;;
635;SDS011;302;50.206;8.196;2022-08-25T14:12:05;6.90;;;6.40;;
635;SDS011;302;50.206;8.196;2022-08-25T14:14:31;6.60;;;6.20;;
635;SDS011;302;50.206;8.196;2022-08-25T14:16:58;6.90;;;6.40;;
635;SDS011;302;50.206;8.196;2022-08-25T14:19:24;6.17;;;5.67;;
635;SDS011;302;50.206;8.196;2022-08-25T14:21:50;6.63;;;6.13;;
635;SDS011;302;50.206;8.196;2022-08-25T14:24:17;6.65;;;6.25;;
635;SDS011;302;50.206;8.196;2022-08-25T14:26:43;6.93;;;6.32;;
635;SDS011;302;50.206;8.196;2022-08-25T14:29:09;6.93;;;6.43;;
635;SDS011;302;50.206;8.196;2022-08-25T14:31:35;6.22;;;5.82;;
635;SDS011;302;50.206;8.196;2022-08-25T14:34:07;6.70;;;6.30;;
635;SDS011;302;50.206;8.196;2022-08-25T14:36:33;6.38;;;5.97;;
635;SDS011;302;50.206;8.196;2022-08-25T14:38:59;6.30;;;5.80;;
635;SDS011;302;50.206;8.196;2022-08-25T14:41:24;6.80;;;6.30;;
635;SDS011;302;50.206;8.196;2022-08-25T14:43:50;6.53;;;6.03;;
635;SDS011;302;50.206;8.196;2022-08-25T14:46:17;7.00;;;6.50;;
635;SDS011;302;50.206;8.196;2022-08-25T14:48:44;7.13;;;5.63;;
635;SDS011;302;50.206;8.196;2022-08-25T14:51:10;6.30;;;5.70;;
635;SDS011;302;50.206;8.196;2022-08-25T14:53:35;5.77;;;5.27;;
635;SDS011;302;50.206;8.196;2022-08-25T14:56:01;6.57;;;5.97;;
635;SDS011;302;50.206;8.196;2022-08-25T14:58:26;6.37;;;5.97;;
635;SDS011;302;50.206;8.196;2022-08-25T15:00:52;5.90;;;5.40;;
635;SDS011;302;50.206;8.196;2022-08-25T15:03:19;5.87;;;5.47;;
635;SDS011;302;50.206;8.196;2022-08-25T15:05:48;5.27;;;4.97;;
635;SDS011;302;50.206;8.196;2022-08-25T15:08:13;6.03;;;5.43;;
635;SDS011;302;50.206;8.196;2022-08-25T15:10:57;6.35;;;5.90;;
635;SDS011;302;50.206;8.196;2022-08-25T15:13:22;6.70;;;6.30;;
635;SDS011;302;50.206;8.196;2022-08-25T15:15:48;6.53;;;6.13;;
635;SDS011;302;50.206;8.196;2022-08-25T15:18:13;6.20;;;5.82;;
635;SDS011;302;50.206;8.196;2022-08-25T15:20:39;6.65;;;6.10;;
635;SDS011;302;50.206;8.196;2022-08-25T15:23:04;5.88;;;5.43;;
635;SDS011;302;50.206;8.196;2022-08-25T15:25:30;6.47;;;6.07;;
635;SDS011;302;50.206;8.196;2022-08-25T15:27:55;5.38;;;4.97;;
635;SDS011;302;50.206;8.196;2022-08-25T15:30:20;5.47;;;4.97;;
635;SDS011;302;50.206;8.196;2022-08-25T15:32:45;5.73;;;5.30;;
635;SDS011;302;50.206;8.196;2022-08-25T15:35:11;5.70;;;5.30;;
635;SDS011;302;50.206;8.196;2022-08-25T15:37:36;5.50;;;5.20;;
635;SDS011;302;50.206;8.196;2022-08-25T15:40:02;5.28;;;4.97;;
635;SDS011;302;50.206;8.196;2022-08-25T15:42:27;5.82;;;5.47;;
635;SDS011;302;50.206;8.196;2022-08-25T15:44:53;5.72;;;5.35;;
635;SDS011;302;50.206;8.196;2022-08-25T15:47:18;5.90;;;5.60;;
635;SDS011;302;50.206;8.196;2022-08-25T15:49:44;28.83;;;5.67;;
635;SDS011;302;50.206;8.196;2022-08-25T15:52:09;7.27;;;5.73;;
635;SDS011;302;50.206;8.196;2022-08-25T15:54:36;5.40;;;5.10;;
635;SDS011;302;50.206;8.196;2022-08-25T15:57:01;6.40;;;5.90;;
635;SDS011;302;50.206;8.196;2022-08-25T15:59:26;5.70;;;5.40;;
635;SDS011;302;50.206;8.196;2022-08-25T16:01:52;5.82;;;5.43;;
635;SDS011;302;50.206;8.196;2022-08-25T16:04:18;6.05;;;5.68;;
635;SDS011;302;50.206;8.196;2022-08-25T16:06:44;6.07;;;5.68;;
635;SDS011;302;50.206;8.196;2022-08-25T16:09:09;6.10;;;5.70;;
635;SDS011;302;50.206;8.196;2022-08-25T16:11:35;5.78;;;5.47;;
635;SDS011;302;50.206;8.196;2022-08-25T16:14:02;6.30;;;5.85;;
635;SDS011;302;50.206;8.196;2022-08-25T16:16:28;5.72;;;5.32;;
635;SDS011;302;50.206;8.196;2022-08-25T16:18:54;6.07;;;5.78;;
635;SDS011;302;50.206;8.196;2022-08-25T16:21:20;7.47;;;6.28;;
635;SDS011;302;50.206;8.196;2022-08-25T16:23:48;5.53;;;5.13;;
635;SDS011;302;50.206;8.196;2022-08-25T16:26:13;5.60;;;5.20;;
635;SDS011;302;50.206;8.196;2022-08-25T16:28:39;5.50;;;5.20;;
635;SDS011;302;50.206;8.196;2022-08-25T16:31:04;5.95;;;5.45;;
635;SDS011;302;50.206;8.196;2022-08-25T16:33:30;6.10;;;5.65;;
635;SDS011;302;50.206;8.196;2022-08-25T16:36:08;5.80;;;5.50;;
635;SDS011;302;50.206;8.196;2022-08-25T16:38:34;5.68;;;5.38;;
635;SDS011;302;50.206;8.196;2022-08-25T16:41:00;5.85;;;5.50;;
635;SDS011;302;50.206;8.196;2022-08-25T16:43:28;5.82;;;5.43;;
635;SDS011;302;50.206;8.196;2022-08-25T16:46:00;6.93;;;5.73;;
635;SDS011;302;50.206;8.196;2022-08-25T16:48:26;5.88;;;5.57;;
635;SDS011;302;50.206;8.196;2022-08-25T16:50:51;5.27;;;4.97;;
635;SDS011;302;50.206;8.196;2022-08-25T16:53:16;5.47;;;5.07;;
635;SDS011;302;50.206;8.196;2022-08-25T16:56:01;5.55;;;5.15;;
635;SDS011;302;50.206;8.196;2022-08-25T16:58:26;5.82;;;5.43;;
635;SDS011;302;50.206;8.196;2022-08-25T17:00:52;6.00;;;5.60;;
635;SDS011;302;50.206;8.196;2022-08-25T17:03:17;5.00;;;4.70;;
635;SDS011;302;50.206;8.196;2022-08-25T17:05:42;5.10;;;4.80;;
635;SDS011;302;50.206;8.196;2022-08-25T17:08:07;5.72;;;5.22;;
635;SDS011;302;50.206;8.196;2022-08-25T17:10:51;5.07;;;4.78;;
635;SDS011;302;50.206;8.196;2022-08-25T17:13:16;5.47;;;5.07;;
635;SDS011;302;50.206;8.196;2022-08-25T17:15:42;5.50;;;5.10;;
635;SDS011;302;50.206;8.196;2022-08-25T17:18:08;5.93;;;5.27;;